sensor_id;sensor_type;location;lat;lon;timestamp;temperature;humidity
27619;DHT22;15039;50.830;4.730;2023-02-22T00:00:39;6.00;99.90
27619;DHT22;15039;50.830;4.730;2023-02-22T00:05:35;6.00;99.90
27619;DHT22;15039;50.830;4.730;2023-02-22T00:08:04;6.20;99.90
27619;DHT22;15039;50.830;4.730;2023-02-22T00:10:34;6.00;99.90
27619;DHT22;15039;50.830;4.730;2023-02-22T00:13:03;5.90;99.90
27619;DHT22;15039;50.830;4.730;2023-02-22T00:15:29;5.80;99.90
27619;DHT22;15039;50.830;4.730;2023-02-22T00:17:55;5.90;99.90
27619;DHT22;15039;50.830;4.730;2023-02-22T00:20:22;5.90;99.90
27619;DHT22;15039;50.830;4.730;2023-02-22T00:22:48;6.00;99.90
27619;DHT22;15039;50.830;4.730;2023-02-22T00:25:17;6.00;99.90
27619;DHT22;15039;50.830;4.730;2023-02-22T00:27:44;5.90;99.90
27619;DHT22;15039;50.830;4.730;2023-02-22T00:30:15;5.80;99.90
27619;DHT22;15039;50.830;4.730;2023-02-22T00:32:48;5.80;99.90
27619;DHT22;15039;50.830;4.730;2023-02-22T00:35:15;5.80;99.90
27619;DHT22;15039;50.830;4.730;2023-02-22T00:37:42;5.80;99.90
27619;DHT22;15039;50.830;4.730;2023-02-22T00:40:09;5.70;99.90
27619;DHT22;15039;50.830;4.730;2023-02-22T00:42:35;5.70;99.90
27619;DHT22;15039;50.830;4.730;2023-02-22T00:45:00;5.60;99.90
27619;DHT22;15039;50.830;4.730;2023-02-22T00:47:27;5.70;99.90
27619;DHT22;15039;50.830;4.730;2023-02-22T00:49:54;5.60;99.90
27619;DHT22;15039;50.830;4.730;2023-02-22T00:52:20;5.60;99.90
27619;DHT22;15039;50.830;4.730;2023-02-22T00:54:46;5.50;99.90
27619;DHT22;15039;50.830;4.730;2023-02-22T00:57:11;5.50;99.90
27619;DHT22;15039;50.830;4.730;2023-02-22T00:59:37;5.50;99.90
27619;DHT22;15039;50.830;4.730;2023-02-22T01:02:03;5.50;99.90
27619;DHT22;15039;50.830;4.730;2023-02-22T01:04:28;5.50;99.90
27619;DHT22;15039;50.830;4.730;2023-02-22T01:06:54;5.50;99.90
27619;DHT22;15039;50.830;4.730;2023-02-22T01:09:20;5.50;99.90
27619;DHT22;15039;50.830;4.730;2023-02-22T01:11:47;5.50;99.90
27619;DHT22;15039;50.830;4.730;2023-02-22T01:14:12;5.40;99.90
27619;DHT22;15039;50.830;4.730;2023-02-22T01:16:38;5.50;99.90
27619;DHT22;15039;50.830;4.730;2023-02-22T01:19:03;5.50;99.90
27619;DHT22;15039;50.830;4.730;2023-02-22T01:21:30;5.40;99.90
27619;DHT22;15039;50.830;4.730;2023-02-22T01:23:56;5.30;99.90
27619;DHT22;15039;50.830;4.730;2023-02-22T01:26:22;5.30;99.90
27619;DHT22;15039;50.830;4.730;2023-02-22T01:28:47;5.20;99.90
27619;DHT22;15039;50.830;4.730;2023-02-22T01:31:13;5.30;99.90
27619;DHT22;15039;50.830;4.730;2023-02-22T01:33:40;5.30;99.90
27619;DHT22;15039;50.830;4.730;2023-02-22T01:36:06;5.30;99.90
27619;DHT22;15039;50.830;4.730;2023-02-22T01:38:36;5.20;99.90
27619;DHT22;15039;50.830;4.730;2023-02-22T01:41:03;5.20;99.90
27619;DHT22;15039;50.830;4.730;2023-02-22T01:43:31;5.10;99.90
27619;DHT22;15039;50.830;4.730;2023-02-22T01:46:01;5.00;99.90
27619;DHT22;15039;50.830;4.730;2023-02-22T01:48:48;4.90;99.90
27619;DHT22;15039;50.830;4.730;2023-02-22T01:51:27;4.80;99.90
27619;DHT22;15039;50.830;4.730;2023-02-22T01:53:56;4.70;99.90
27619;DHT22;15039;50.830;4.730;2023-02-22T01:56:24;4.90;99.90
27619;DHT22;15039;50.830;4.730;2023-02-22T01:59:11;4.90;99.90
27619;DHT22;15039;50.830;4.730;2023-02-22T02:01:39;4.80;99.90
27619;DHT22;15039;50.830;4.730;2023-02-22T02:04:12;4.70;99.90
27619;DHT22;15039;50.830;4.730;2023-02-22T02:06:39;4.60;99.90
27619;DHT22;15039;50.830;4.730;2023-02-22T02:09:20;4.60;99.90
27619;DHT22;15039;50.830;4.730;2023-02-22T02:11:48;4.70;99.90
27619;DHT22;15039;50.830;4.730;2023-02-22T02:14:15;4.70;99.90
27619;DHT22;15039;50.830;4.730;2023-02-22T02:16:43;4.70;99.90
27619;DHT22;15039;50.830;4.730;2023-02-22T02:19:27;4.70;99.90
27619;DHT22;15039;50.830;4.730;2023-02-22T02:23:02;4.60;99.90
27619;DHT22;15039;50.830;4.730;2023-02-22T02:36:15;4.50;99.90
27619;DHT22;15039;50.830;4.730;2023-02-22T02:38:46;4.50;99.90
27619;DHT22;15039;50.830;4.730;2023-02-22T02:41:34;4.40;99.90
27619;DHT22;15039;50.830;4.730;2023-02-22T02:44:16;4.50;99.90
27619;DHT22;15039;50.830;4.730;2023-02-22T02:46:51;4.50;99.90
27619;DHT22;15039;50.830;4.730;2023-02-22T02:49:40;4.40;99.90
27619;DHT22;15039;50.830;4.730;2023-02-22T02:52:09;4.40;99.90
27619;DHT22;15039;50.830;4.730;2023-02-22T02:54:38;4.30;99.90
27619;DHT22;15039;50.830;4.730;2023-02-22T02:57:04;4.30;99.90
27619;DHT22;15039;50.830;4.730;2023-02-22T02:59:33;4.40;99.90
27619;DHT22;15039;50.830;4.730;2023-02-22T03:02:15;4.40;99.90
27619;DHT22;15039;50.830;4.730;2023-02-22T03:10:47;4.10;99.90
27619;DHT22;15039;50.830;4.730;2023-02-22T03:27:36;4.20;99.90
27619;DHT22;15039;50.830;4.730;2023-02-22T03:30:24;4.20;99.90
27619;DHT22;15039;50.830;4.730;2023-02-22T03:33:07;4.10;99.90
27619;DHT22;15039;50.830;4.730;2023-02-22T03:35:41;4.10;99.90
27619;DHT22;15039;50.830;4.730;2023-02-22T03:38:10;4.10;99.90
27619;DHT22;15039;50.830;4.730;2023-02-22T03:40:43;4.00;99.90
27619;DHT22;15039;50.830;4.730;2023-02-22T03:43:14;3.90;99.90
27619;DHT22;15039;50.830;4.730;2023-02-22T03:45:42;3.90;99.90
27619;DHT22;15039;50.830;4.730;2023-02-22T03:50:51;3.80;99.90
27619;DHT22;15039;50.830;4.730;2023-02-22T03:53:18;3.70;99.90
27619;DHT22;15039;50.830;4.730;2023-02-22T03:55:46;3.70;99.90
27619;DHT22;15039;50.830;4.730;2023-02-22T03:58:17;3.60;99.90
27619;DHT22;15039;50.830;4.730;2023-02-22T04:00:45;3.50;99.90
27619;DHT22;15039;50.830;4.730;2023-02-22T04:03:11;3.50;99.90
27619;DHT22;15039;50.830;4.730;2023-02-22T04:05:37;3.50;99.90
27619;DHT22;15039;50.830;4.730;2023-02-22T04:08:03;3.50;99.90
27619;DHT22;15039;50.830;4.730;2023-02-22T04:10:30;3.50;99.90
27619;DHT22;15039;50.830;4.730;2023-02-22T04:12:57;3.40;99.90
27619;DHT22;15039;50.830;4.730;2023-02-22T04:15:24;3.40;99.90
27619;DHT22;15039;50.830;4.730;2023-02-22T04:17:50;3.50;99.90
27619;DHT22;15039;50.830;4.730;2023-02-22T04:20:17;3.50;99.90
27619;DHT22;15039;50.830;4.730;2023-02-22T04:22:51;3.50;99.90
27619;DHT22;15039;50.830;4.730;2023-02-22T04:25:18;3.50;99.90
27619;DHT22;15039;50.830;4.730;2023-02-22T04:27:44;3.60;99.90
27619;DHT22;15039;50.830;4.730;2023-02-22T04:30:11;3.50;99.90
27619;DHT22;15039;50.830;4.730;2023-02-22T04:32:37;3.60;99.90
27619;DHT22;15039;50.830;4.730;2023-02-22T04:35:04;3.60;99.90
27619;DHT22;15039;50.830;4.730;2023-02-22T04:37:30;3.60;99.90
27619;DHT22;15039;50.830;4.730;2023-02-22T04:39:59;3.50;99.90
27619;DHT22;15039;50.830;4.730;2023-02-22T04:42:25;3.40;99.90
27619;DHT22;15039;50.830;4.730;2023-02-22T04:44:51;3.50;99.90
27619;DHT22;15039;50.830;4.730;2023-02-22T04:47:17;3.60;99.90
27619;DHT22;15039;50.830;4.730;2023-02-22T04:49:42;3.60;99.90
27619;DHT22;15039;50.830;4.730;2023-02-22T04:52:08;3.60;99.90
27619;DHT22;15039;50.830;4.730;2023-02-22T04:54:34;3.50;99.90
27619;DHT22;15039;50.830;4.730;2023-02-22T04:56:59;3.50;99.90
27619;DHT22;15039;50.830;4.730;2023-02-22T04:59:25;3.60;99.90
27619;DHT22;15039;50.830;4.730;2023-02-22T05:01:50;3.70;99.90
27619;DHT22;15039;50.830;4.730;2023-02-22T05:04:16;3.60;99.90
27619;DHT22;15039;50.830;4.730;2023-02-22T05:06:41;3.70;99.90
27619;DHT22;15039;50.830;4.730;2023-02-22T05:09:07;3.70;99.90
27619;DHT22;15039;50.830;4.730;2023-02-22T05:11:33;3.80;99.90
27619;DHT22;15039;50.830;4.730;2023-02-22T05:13:58;3.80;99.90
27619;DHT22;15039;50.830;4.730;2023-02-22T05:16:24;3.80;99.90
27619;DHT22;15039;50.830;4.730;2023-02-22T05:18:52;3.70;99.90
27619;DHT22;15039;50.830;4.730;2023-02-22T05:21:18;3.80;99.90
27619;DHT22;15039;50.830;4.730;2023-02-22T05:23:43;3.80;99.90
27619;DHT22;15039;50.830;4.730;2023-02-22T05:26:09;3.90;99.90
27619;DHT22;15039;50.830;4.730;2023-02-22T05:28:35;3.90;99.90
27619;DHT22;15039;50.830;4.730;2023-02-22T05:31:00;3.90;99.90
27619;DHT22;15039;50.830;4.730;2023-02-22T05:33:26;3.90;99.90
27619;DHT22;15039;50.830;4.730;2023-02-22T05:35:52;3.80;99.90
27619;DHT22;15039;50.830;4.730;2023-02-22T05:38:20;3.80;99.90
27619;DHT22;15039;50.830;4.730;2023-02-22T05:40:46;3.80;99.90
27619;DHT22;15039;50.830;4.730;2023-02-22T05:43:14;3.90;99.90
27619;DHT22;15039;50.830;4.730;2023-02-22T05:45:45;3.90;99.90
27619;DHT22;15039;50.830;4.730;2023-02-22T05:48:11;3.80;99.90
27619;DHT22;15039;50.830;4.730;2023-02-22T05:50:37;3.80;99.90
27619;DHT22;15039;50.830;4.730;2023-02-22T05:53:03;3.90;99.90
27619;DHT22;15039;50.830;4.730;2023-02-22T05:55:30;3.90;99.90
27619;DHT22;15039;50.830;4.730;2023-02-22T05:57:55;3.80;99.90
27619;DHT22;15039;50.830;4.730;2023-02-22T06:00:27;3.70;99.90
27619;DHT22;15039;50.830;4.730;2023-02-22T06:03:00;3.70;99.90
27619;DHT22;15039;50.830;4.730;2023-02-22T06:05:29;3.70;99.90
27619;DHT22;15039;50.830;4.730;2023-02-22T06:08:02;3.80;99.90
27619;DHT22;15039;50.830;4.730;2023-02-22T06:10:28;3.90;99.90
27619;DHT22;15039;50.830;4.730;2023-02-22T06:12:54;3.90;99.90
27619;DHT22;15039;50.830;4.730;2023-02-22T06:15:21;4.10;99.90
27619;DHT22;15039;50.830;4.730;2023-02-22T06:17:47;4.00;99.90
27619;DHT22;15039;50.830;4.730;2023-02-22T06:20:15;3.90;99.90
27619;DHT22;15039;50.830;4.730;2023-02-22T06:22:41;3.90;99.90
27619;DHT22;15039;50.830;4.730;2023-02-22T06:25:08;3.80;99.90
27619;DHT22;15039;50.830;4.730;2023-02-22T06:27:34;3.90;99.90
27619;DHT22;15039;50.830;4.730;2023-02-22T06:30:00;4.00;99.90
27619;DHT22;15039;50.830;4.730;2023-02-22T06:32:26;3.90;99.90
27619;DHT22;15039;50.830;4.730;2023-02-22T06:34:52;4.00;99.90
27619;DHT22;15039;50.830;4.730;2023-02-22T06:37:18;4.10;99.90
27619;DHT22;15039;50.830;4.730;2023-02-22T06:39:44;4.10;99.90
27619;DHT22;15039;50.830;4.730;2023-02-22T06:42:09;4.20;99.90
27619;DHT22;15039;50.830;4.730;2023-02-22T06:44:35;4.10;99.90
27619;DHT22;15039;50.830;4.730;2023-02-22T06:47:00;4.10;99.90
27619;DHT22;15039;50.830;4.730;2023-02-22T06:49:26;4.00;99.90
27619;DHT22;15039;50.830;4.730;2023-02-22T06:51:53;4.00;99.90
27619;DHT22;15039;50.830;4.730;2023-02-22T06:54:19;4.00;99.90
27619;DHT22;15039;50.830;4.730;2023-02-22T06:56:44;4.00;99.90
27619;DHT22;15039;50.830;4.730;2023-02-22T06:59:10;4.20;99.90
27619;DHT22;15039;50.830;4.730;2023-02-22T07:01:36;4.10;99.90
27619;DHT22;15039;50.830;4.730;2023-02-22T07:04:02;4.00;99.90
27619;DHT22;15039;50.830;4.730;2023-02-22T07:06:27;4.10;99.90
27619;DHT22;15039;50.830;4.730;2023-02-22T07:08:53;4.00;99.90
27619;DHT22;15039;50.830;4.730;2023-02-22T07:11:19;3.90;99.90
27619;DHT22;15039;50.830;4.730;2023-02-22T07:13:44;3.90;99.90
27619;DHT22;15039;50.830;4.730;2023-02-22T07:16:10;3.90;99.90
27619;DHT22;15039;50.830;4.730;2023-02-22T07:18:36;3.90;99.90
27619;DHT22;15039;50.830;4.730;2023-02-22T07:21:03;3.90;99.90
27619;DHT22;15039;50.830;4.730;2023-02-22T07:23:29;3.90;99.90
27619;DHT22;15039;50.830;4.730;2023-02-22T07:25:55;4.00;99.90
27619;DHT22;15039;50.830;4.730;2023-02-22T07:28:21;3.90;99.90
27619;DHT22;15039;50.830;4.730;2023-02-22T07:30:46;3.90;99.90
27619;DHT22;15039;50.830;4.730;2023-02-22T07:33:12;3.90;99.90
27619;DHT22;15039;50.830;4.730;2023-02-22T07:35:46;3.90;99.90
27619;DHT22;15039;50.830;4.730;2023-02-22T07:38:16;4.00;99.90
27619;DHT22;15039;50.830;4.730;2023-02-22T07:40:42;4.10;99.90
27619;DHT22;15039;50.830;4.730;2023-02-22T07:43:18;4.20;99.90
27619;DHT22;15039;50.830;4.730;2023-02-22T07:45:44;4.30;99.90
27619;DHT22;15039;50.830;4.730;2023-02-22T07:48:18;4.30;99.90
27619;DHT22;15039;50.830;4.730;2023-02-22T07:50:44;4.50;99.90
27619;DHT22;15039;50.830;4.730;2023-02-22T07:53:15;4.50;99.90
27619;DHT22;15039;50.830;4.730;2023-02-22T07:55:41;4.70;99.90
27619;DHT22;15039;50.830;4.730;2023-02-22T07:58:08;4.80;99.90
27619;DHT22;15039;50.830;4.730;2023-02-22T08:00:35;4.90;99.90
27619;DHT22;15039;50.830;4.730;2023-02-22T08:03:03;4.90;99.90
27619;DHT22;15039;50.830;4.730;2023-02-22T08:05:52;5.00;99.90
27619;DHT22;15039;50.830;4.730;2023-02-22T08:08:18;5.10;99.90
27619;DHT22;15039;50.830;4.730;2023-02-22T08:10:44;5.40;99.90
27619;DHT22;15039;50.830;4.730;2023-02-22T08:13:10;5.60;99.90
27619;DHT22;15039;50.830;4.730;2023-02-22T08:15:38;5.60;99.90
27619;DHT22;15039;50.830;4.730;2023-02-22T08:18:10;5.90;99.90
27619;DHT22;15039;50.830;4.730;2023-02-22T08:20:37;6.00;99.90
27619;DHT22;15039;50.830;4.730;2023-02-22T08:23:04;6.20;99.90
27619;DHT22;15039;50.830;4.730;2023-02-22T08:25:30;6.60;99.90
27619;DHT22;15039;50.830;4.730;2023-02-22T08:28:01;6.80;99.90
27619;DHT22;15039;50.830;4.730;2023-02-22T08:30:28;6.90;99.90
27619;DHT22;15039;50.830;4.730;2023-02-22T08:32:55;7.10;99.90
27619;DHT22;15039;50.830;4.730;2023-02-22T08:35:21;7.20;99.90
27619;DHT22;15039;50.830;4.730;2023-02-22T08:37:51;7.60;99.90
27619;DHT22;15039;50.830;4.730;2023-02-22T08:40:18;7.90;99.90
27619;DHT22;15039;50.830;4.730;2023-02-22T08:42:44;8.00;99.90
27619;DHT22;15039;50.830;4.730;2023-02-22T08:45:10;8.10;99.90
27619;DHT22;15039;50.830;4.730;2023-02-22T08:47:36;8.30;99.90
27619;DHT22;15039;50.830;4.730;2023-02-22T08:50:02;8.40;99.90
27619;DHT22;15039;50.830;4.730;2023-02-22T08:52:27;8.50;99.90
27619;DHT22;15039;50.830;4.730;2023-02-22T08:54:53;8.70;99.90
27619;DHT22;15039;50.830;4.730;2023-02-22T08:57:20;8.70;99.90
27619;DHT22;15039;50.830;4.730;2023-02-22T08:59:46;8.90;99.90
27619;DHT22;15039;50.830;4.730;2023-02-22T09:02:16;9.00;99.90
27619;DHT22;15039;50.830;4.730;2023-02-22T09:04:42;9.20;99.90
27619;DHT22;15039;50.830;4.730;2023-02-22T09:07:08;9.20;99.90
27619;DHT22;15039;50.830;4.730;2023-02-22T09:09:34;9.40;99.90
27619;DHT22;15039;50.830;4.730;2023-02-22T09:12:00;9.60;99.90
27619;DHT22;15039;50.830;4.730;2023-02-22T09:14:27;9.80;99.90
27619;DHT22;15039;50.830;4.730;2023-02-22T09:16:52;10.00;99.90
27619;DHT22;15039;50.830;4.730;2023-02-22T09:19:18;10.00;99.90
27619;DHT22;15039;50.830;4.730;2023-02-22T09:21:43;10.20;99.90
27619;DHT22;15039;50.830;4.730;2023-02-22T09:24:09;10.20;99.90
27619;DHT22;15039;50.830;4.730;2023-02-22T09:26:39;10.10;99.90
27619;DHT22;15039;50.830;4.730;2023-02-22T09:29:10;10.20;99.90
27619;DHT22;15039;50.830;4.730;2023-02-22T09:31:39;10.20;99.90
27619;DHT22;15039;50.830;4.730;2023-02-22T09:34:07;10.30;99.90
27619;DHT22;15039;50.830;4.730;2023-02-22T09:36:40;10.40;99.90
27619;DHT22;15039;50.830;4.730;2023-02-22T09:39:06;10.40;99.90
27619;DHT22;15039;50.830;4.730;2023-02-22T09:41:49;10.50;99.90
27619;DHT22;15039;50.830;4.730;2023-02-22T09:44:31;10.60;99.90
27619;DHT22;15039;50.830;4.730;2023-02-22T09:47:02;10.70;99.90
27619;DHT22;15039;50.830;4.730;2023-02-22T09:49:38;10.70;99.90
27619;DHT22;15039;50.830;4.730;2023-02-22T09:52:11;10.70;99.90
27619;DHT22;15039;50.830;4.730;2023-02-22T09:54:42;10.70;99.90
27619;DHT22;15039;50.830;4.730;2023-02-22T09:57:16;10.80;99.90
27619;DHT22;15039;50.830;4.730;2023-02-22T10:00:38;10.80;99.90
27619;DHT22;15039;50.830;4.730;2023-02-22T10:05:36;10.60;99.90
27619;DHT22;15039;50.830;4.730;2023-02-22T10:08:09;10.70;99.90
27619;DHT22;15039;50.830;4.730;2023-02-22T10:10:40;10.60;99.90
27619;DHT22;15039;50.830;4.730;2023-02-22T10:24:31;10.60;99.90
27619;DHT22;15039;50.830;4.730;2023-02-22T10:26:53;10.70;99.90
27619;DHT22;15039;50.830;4.730;2023-02-22T10:32:03;10.80;99.90
27619;DHT22;15039;50.830;4.730;2023-02-22T10:34:40;10.80;99.90
27619;DHT22;15039;50.830;4.730;2023-02-22T10:39:47;10.80;99.90
27619;DHT22;15039;50.830;4.730;2023-02-22T10:42:14;10.80;99.90
27619;DHT22;15039;50.830;4.730;2023-02-22T10:44:40;10.90;99.90
27619;DHT22;15039;50.830;4.730;2023-02-22T10:47:08;11.10;99.90
27619;DHT22;15039;50.830;4.730;2023-02-22T10:49:41;11.00;99.90
27619;DHT22;15039;50.830;4.730;2023-02-22T10:52:32;11.10;99.90
27619;DHT22;15039;50.830;4.730;2023-02-22T10:54:59;11.10;99.90
27619;DHT22;15039;50.830;4.730;2023-02-22T10:57:28;11.00;99.90
27619;DHT22;15039;50.830;4.730;2023-02-22T10:59:56;11.10;99.90
27619;DHT22;15039;50.830;4.730;2023-02-22T11:02:33;11.30;99.90
27619;DHT22;15039;50.830;4.730;2023-02-22T11:05:01;11.40;99.90
27619;DHT22;15039;50.830;4.730;2023-02-22T11:07:35;11.60;99.90
27619;DHT22;15039;50.830;4.730;2023-02-22T11:10:02;11.80;99.90
27619;DHT22;15039;50.830;4.730;2023-02-22T11:12:31;12.00;99.90
27619;DHT22;15039;50.830;4.730;2023-02-22T11:17:48;12.10;99.90
27619;DHT22;15039;50.830;4.730;2023-02-22T11:20:28;12.10;99.90
27619;DHT22;15039;50.830;4.730;2023-02-22T11:23:00;12.10;99.90
27619;DHT22;15039;50.830;4.730;2023-02-22T11:25:33;12.00;99.90
27619;DHT22;15039;50.830;4.730;2023-02-22T11:28:20;12.00;99.90
27619;DHT22;15039;50.830;4.730;2023-02-22T11:30:56;12.10;99.90
27619;DHT22;15039;50.830;4.730;2023-02-22T11:33:23;12.00;99.90
27619;DHT22;15039;50.830;4.730;2023-02-22T11:36:02;12.00;99.90
27619;DHT22;15039;50.830;4.730;2023-02-22T11:38:31;12.10;99.90
27619;DHT22;15039;50.830;4.730;2023-02-22T11:41:09;12.10;99.90
27619;DHT22;15039;50.830;4.730;2023-02-22T11:43:36;12.10;99.90
27619;DHT22;15039;50.830;4.730;2023-02-22T11:46:10;12.10;99.90
27619;DHT22;15039;50.830;4.730;2023-02-22T11:48:40;12.10;99.90
27619;DHT22;15039;50.830;4.730;2023-02-22T11:51:15;12.20;99.90
27619;DHT22;15039;50.830;4.730;2023-02-22T11:54:11;12.10;99.90
27619;DHT22;15039;50.830;4.730;2023-02-22T11:56:48;12.20;99.90
27619;DHT22;15039;50.830;4.730;2023-02-22T11:59:37;12.40;99.90
27619;DHT22;15039;50.830;4.730;2023-02-22T12:10:37;12.40;99.90
27619;DHT22;15039;50.830;4.730;2023-02-22T12:21:40;12.80;99.90
27619;DHT22;15039;50.830;4.730;2023-02-22T12:24:20;12.80;99.90
27619;DHT22;15039;50.830;4.730;2023-02-22T12:26:50;12.90;99.90
27619;DHT22;15039;50.830;4.730;2023-02-22T12:29:34;12.90;99.90
27619;DHT22;15039;50.830;4.730;2023-02-22T12:32:03;12.80;99.90
27619;DHT22;15039;50.830;4.730;2023-02-22T12:37:20;12.90;99.90
27619;DHT22;15039;50.830;4.730;2023-02-22T12:53:52;12.70;99.90
27619;DHT22;15039;50.830;4.730;2023-02-22T12:56:33;12.70;99.90
27619;DHT22;15039;50.830;4.730;2023-02-22T12:59:13;12.60;99.90
27619;DHT22;15039;50.830;4.730;2023-02-22T13:01:44;12.60;99.90
27619;DHT22;15039;50.830;4.730;2023-02-22T13:04:13;12.60;99.90
27619;DHT22;15039;50.830;4.730;2023-02-22T13:06:47;12.60;99.90
27619;DHT22;15039;50.830;4.730;2023-02-22T13:12:11;12.70;99.90
27619;DHT22;15039;50.830;4.730;2023-02-22T13:17:32;12.70;99.90
27619;DHT22;15039;50.830;4.730;2023-02-22T13:27:50;12.60;99.90
27619;DHT22;15039;50.830;4.730;2023-02-22T13:30:38;12.70;99.90
27619;DHT22;15039;50.830;4.730;2023-02-22T13:33:27;12.70;99.90
27619;DHT22;15039;50.830;4.730;2023-02-22T13:36:35;12.80;99.90
27619;DHT22;15039;50.830;4.730;2023-02-22T13:47:33;12.80;99.90
27619;DHT22;15039;50.830;4.730;2023-02-22T13:52:49;12.70;99.90
27619;DHT22;15039;50.830;4.730;2023-02-22T13:55:22;12.70;99.90
27619;DHT22;15039;50.830;4.730;2023-02-22T13:58:02;12.70;99.90
27619;DHT22;15039;50.830;4.730;2023-02-22T14:00:55;12.70;99.90
27619;DHT22;15039;50.830;4.730;2023-02-22T14:03:35;12.60;99.90
27619;DHT22;15039;50.830;4.730;2023-02-22T14:06:06;12.50;99.90
27619;DHT22;15039;50.830;4.730;2023-02-22T14:11:07;12.70;99.90
27619;DHT22;15039;50.830;4.730;2023-02-22T14:16:26;12.70;99.90
27619;DHT22;15039;50.830;4.730;2023-02-22T14:19:15;12.60;99.90
27619;DHT22;15039;50.830;4.730;2023-02-22T14:21:56;12.60;99.90
27619;DHT22;15039;50.830;4.730;2023-02-22T14:24:22;12.60;99.90
27619;DHT22;15039;50.830;4.730;2023-02-22T14:26:59;12.60;99.90
27619;DHT22;15039;50.830;4.730;2023-02-22T14:29:26;12.50;99.90
27619;DHT22;15039;50.830;4.730;2023-02-22T14:32:03;12.50;99.90
27619;DHT22;15039;50.830;4.730;2023-02-22T14:34:41;12.60;99.90
27619;DHT22;15039;50.830;4.730;2023-02-22T14:37:20;12.60;99.90
27619;DHT22;15039;50.830;4.730;2023-02-22T14:39:52;12.60;99.90
27619;DHT22;15039;50.830;4.730;2023-02-22T14:42:20;12.60;99.90
27619;DHT22;15039;50.830;4.730;2023-02-22T14:47:18;12.50;99.90
27619;DHT22;15039;50.830;4.730;2023-02-22T14:49:47;12.30;99.90
27619;DHT22;15039;50.830;4.730;2023-02-22T14:52:35;12.30;99.90
27619;DHT22;15039;50.830;4.730;2023-02-22T14:55:05;12.40;99.90
27619;DHT22;15039;50.830;4.730;2023-02-22T14:57:41;12.40;99.90
27619;DHT22;15039;50.830;4.730;2023-02-22T15:00:18;12.30;99.90
27619;DHT22;15039;50.830;4.730;2023-02-22T15:02:46;12.10;99.90
27619;DHT22;15039;50.830;4.730;2023-02-22T15:05:14;12.00;99.90
27619;DHT22;15039;50.830;4.730;2023-02-22T15:07:50;12.00;99.90
27619;DHT22;15039;50.830;4.730;2023-02-22T15:15:34;11.90;99.90
27619;DHT22;15039;50.830;4.730;2023-02-22T15:18:00;11.90;99.90
27619;DHT22;15039;50.830;4.730;2023-02-22T15:20:26;12.00;99.90
27619;DHT22;15039;50.830;4.730;2023-02-22T15:22:58;12.00;99.90
27619;DHT22;15039;50.830;4.730;2023-02-22T15:25:27;12.10;99.90
27619;DHT22;15039;50.830;4.730;2023-02-22T15:27:59;12.10;99.90
27619;DHT22;15039;50.830;4.730;2023-02-22T15:30:28;12.20;99.90
27619;DHT22;15039;50.830;4.730;2023-02-22T15:33:06;12.20;99.90
27619;DHT22;15039;50.830;4.730;2023-02-22T15:35:33;12.20;99.90
27619;DHT22;15039;50.830;4.730;2023-02-22T15:38:19;12.20;99.90
27619;DHT22;15039;50.830;4.730;2023-02-22T15:40:46;12.10;99.90
27619;DHT22;15039;50.830;4.730;2023-02-22T15:43:21;12.00;99.90
27619;DHT22;15039;50.830;4.730;2023-02-22T15:45:56;11.90;99.90
27619;DHT22;15039;50.830;4.730;2023-02-22T15:48:22;11.90;99.90
27619;DHT22;15039;50.830;4.730;2023-02-22T15:51:08;11.90;99.90
27619;DHT22;15039;50.830;4.730;2023-02-22T15:53:45;11.90;99.90
27619;DHT22;15039;50.830;4.730;2023-02-22T15:56:17;12.00;99.90
27619;DHT22;15039;50.830;4.730;2023-02-22T15:58:45;11.90;99.90
27619;DHT22;15039;50.830;4.730;2023-02-22T16:01:14;11.80;99.90
27619;DHT22;15039;50.830;4.730;2023-02-22T16:04:03;11.70;99.90
27619;DHT22;15039;50.830;4.730;2023-02-22T16:06:39;11.80;99.90
27619;DHT22;15039;50.830;4.730;2023-02-22T16:09:20;11.80;99.90
27619;DHT22;15039;50.830;4.730;2023-02-22T16:11:58;11.80;99.90
27619;DHT22;15039;50.830;4.730;2023-02-22T16:19:53;12.00;99.90
27619;DHT22;15039;50.830;4.730;2023-02-22T16:22:29;11.90;99.90
27619;DHT22;15039;50.830;4.730;2023-02-22T16:27:53;11.70;99.90
27619;DHT22;15039;50.830;4.730;2023-02-22T16:30:26;11.70;99.90
27619;DHT22;15039;50.830;4.730;2023-02-22T16:32:55;11.80;99.90
27619;DHT22;15039;50.830;4.730;2023-02-22T16:35:22;11.60;99.90
27619;DHT22;15039;50.830;4.730;2023-02-22T16:38:00;11.60;99.90
27619;DHT22;15039;50.830;4.730;2023-02-22T16:40:30;11.50;99.90
27619;DHT22;15039;50.830;4.730;2023-02-22T16:43:00;11.40;99.90
27619;DHT22;15039;50.830;4.730;2023-02-22T16:45:26;11.40;99.90
27619;DHT22;15039;50.830;4.730;2023-02-22T16:47:52;11.40;99.90
27619;DHT22;15039;50.830;4.730;2023-02-22T16:50:19;11.30;99.90
27619;DHT22;15039;50.830;4.730;2023-02-22T16:52:46;11.30;99.90
27619;DHT22;15039;50.830;4.730;2023-02-22T16:55:14;11.20;99.90
27619;DHT22;15039;50.830;4.730;2023-02-22T16:57:40;11.10;99.90
27619;DHT22;15039;50.830;4.730;2023-02-22T17:00:13;11.10;99.90
27619;DHT22;15039;50.830;4.730;2023-02-22T17:02:39;11.00;99.90
27619;DHT22;15039;50.830;4.730;2023-02-22T17:05:06;10.90;99.90
27619;DHT22;15039;50.830;4.730;2023-02-22T17:07:32;10.90;99.90
27619;DHT22;15039;50.830;4.730;2023-02-22T17:09:58;10.80;99.90
27619;DHT22;15039;50.830;4.730;2023-02-22T17:12:25;10.80;99.90
27619;DHT22;15039;50.830;4.730;2023-02-22T17:14:51;10.80;99.90
27619;DHT22;15039;50.830;4.730;2023-02-22T17:17:17;10.70;99.90
27619;DHT22;15039;50.830;4.730;2023-02-22T17:19:42;10.70;99.90
27619;DHT22;15039;50.830;4.730;2023-02-22T17:22:16;10.60;99.90
27619;DHT22;15039;50.830;4.730;2023-02-22T17:24:42;10.60;99.90
27619;DHT22;15039;50.830;4.730;2023-02-22T17:27:08;10.70;99.90
27619;DHT22;15039;50.830;4.730;2023-02-22T17:29:33;10.70;99.90
27619;DHT22;15039;50.830;4.730;2023-02-22T17:31:59;10.60;99.90
27619;DHT22;15039;50.830;4.730;2023-02-22T17:34:25;10.70;99.90
27619;DHT22;15039;50.830;4.730;2023-02-22T17:36:50;10.70;99.90
27619;DHT22;15039;50.830;4.730;2023-02-22T17:39:16;10.70;99.90
27619;DHT22;15039;50.830;4.730;2023-02-22T17:41:41;10.60;99.90
27619;DHT22;15039;50.830;4.730;2023-02-22T17:44:07;10.50;99.90
27619;DHT22;15039;50.830;4.730;2023-02-22T17:46:34;10.50;99.90
27619;DHT22;15039;50.830;4.730;2023-02-22T17:49:00;10.50;99.90
27619;DHT22;15039;50.830;4.730;2023-02-22T17:51:28;10.50;99.90
27619;DHT22;15039;50.830;4.730;2023-02-22T17:53:54;10.50;99.90
27619;DHT22;15039;50.830;4.730;2023-02-22T17:56:20;10.50;99.90
27619;DHT22;15039;50.830;4.730;2023-02-22T17:58:47;10.50;99.90
27619;DHT22;15039;50.830;4.730;2023-02-22T18:01:27;10.40;99.90
27619;DHT22;15039;50.830;4.730;2023-02-22T18:03:54;10.50;99.90
27619;DHT22;15039;50.830;4.730;2023-02-22T18:06:21;10.60;99.90
27619;DHT22;15039;50.830;4.730;2023-02-22T18:08:48;10.50;99.90
27619;DHT22;15039;50.830;4.730;2023-02-22T18:11:16;10.50;99.90
27619;DHT22;15039;50.830;4.730;2023-02-22T18:13:41;10.40;99.90
27619;DHT22;15039;50.830;4.730;2023-02-22T18:16:10;10.30;99.90